createdAt,value
2024-04-13T00:02:22.116Z,102185.63
2024-04-13T00:04:49.168Z,102176.00
2024-04-13T00:07:16.013Z,102175.94
2024-04-13T00:09:42.913Z,102162.91
2024-04-13T00:12:09.703Z,102161.06
2024-04-13T00:14:36.568Z,102170.03
2024-04-13T00:17:04.265Z,102176.84
2024-04-13T00:19:31.149Z,102176.28
2024-04-13T00:22:01.868Z,102167.66
2024-04-13T00:24:29.034Z,102163.47
2024-04-13T00:26:59.099Z,102166.38
2024-04-13T00:29:25.879Z,102158.47
2024-04-13T00:31:53.452Z,102155.06
2024-04-13T00:34:20.287Z,102151.97
2024-04-13T00:36:48.343Z,102158.91
2024-04-13T00:39:15.353Z,102147.66
2024-04-13T00:41:42.364Z,102150.44
2024-04-13T00:44:09.186Z,102151.63
2024-04-13T00:46:36.191Z,102162.28
2024-04-13T00:49:12.528Z,102155.25
2024-04-13T00:51:42.747Z,102146.19
2024-04-13T00:54:10.519Z,102129.88
2024-04-13T00:56:37.423Z,102139.19
2024-04-13T00:59:04.737Z,102144.47
2024-04-13T01:01:31.693Z,102130.38
2024-04-13T01:03:58.903Z,102131.81
2024-04-13T01:06:25.848Z,102131.03
2024-04-13T01:08:52.724Z,102121.34
2024-04-13T01:11:19.673Z,102123.28
2024-04-13T01:13:47.069Z,102117.22
2024-04-13T01:16:16.239Z,102119.09
2024-04-13T01:18:44.870Z,102104.00
2024-04-13T01:21:14.364Z,102108.19
2024-04-13T01:23:45.889Z,102100.94
2024-04-13T01:26:12.903Z,102089.25
2024-04-13T01:28:39.753Z,102098.06
2024-04-13T01:31:06.852Z,102097.84
2024-04-13T01:33:34.496Z,102090.97
2024-04-13T01:36:02.598Z,102096.75
2024-04-13T01:38:29.560Z,102096.75
2024-04-13T01:40:56.593Z,102090.41
2024-04-13T01:43:23.471Z,102078.09
2024-04-13T01:45:51.687Z,102073.47
2024-04-13T01:48:19.572Z,102067.19
2024-04-13T01:50:46.486Z,102078.41
2024-04-13T01:53:13.294Z,102087.84
2024-04-13T01:55:40.134Z,102086.00
2024-04-13T01:58:07.026Z,102075.28
2024-04-13T02:00:34.074Z,102065.47
2024-04-13T02:03:01.130Z,102067.94
2024-04-13T02:05:28.678Z,102061.47
2024-04-13T02:07:55.520Z,102046.59
2024-04-13T02:10:22.323Z,102052.78
2024-04-13T02:12:49.147Z,102033.44
2024-04-13T02:15:16.023Z,102029.75
2024-04-13T02:17:43.130Z,102026.16
2024-04-13T02:20:15.892Z,102017.50
2024-04-13T02:22:42.723Z,102022.91
2024-04-13T02:25:10.284Z,102021.06
2024-04-13T02:27:37.247Z,102013.00
2024-04-13T02:30:05.126Z,102024.22
2024-04-13T02:32:32.134Z,102008.53
2024-04-13T02:34:59.031Z,102004.13
2024-04-13T02:37:25.885Z,102012.78
2024-04-13T02:39:52.720Z,102011.00
2024-04-13T02:42:20.006Z,102001.41
2024-04-13T02:44:49.055Z,102004.34
2024-04-13T02:47:15.868Z,101985.63
2024-04-13T02:49:42.701Z,101995.38
2024-04-13T02:52:09.528Z,101996.44
2024-04-13T02:54:36.557Z,101991.94
2024-04-13T02:57:03.666Z,101986.69
2024-04-13T02:59:30.559Z,101970.88
2024-04-13T03:01:58.320Z,101959.59
2024-04-13T03:04:25.324Z,101957.91
2024-04-13T03:06:52.186Z,101953.63
2024-04-13T03:09:19.425Z,101951.06
2024-04-13T03:11:46.318Z,101942.25
2024-04-13T03:14:13.395Z,101931.03
2024-04-13T03:16:40.310Z,101913.59
2024-04-13T03:19:07.163Z,101910.25
2024-04-13T03:21:36.744Z,101914.81
2024-04-13T03:24:03.780Z,101910.56
2024-04-13T03:26:30.612Z,101909.06
2024-04-13T03:28:57.808Z,101914.25
2024-04-13T03:31:24.653Z,101914.75
2024-04-13T03:33:51.581Z,101913.97
2024-04-13T03:36:18.537Z,101921.00
2024-04-13T03:38:46.824Z,101922.56
2024-04-13T03:41:13.661Z,101922.56
2024-04-13T03:43:40.552Z,101925.06
2024-04-13T03:46:08.421Z,101916.63
2024-04-13T03:48:40.112Z,101923.69
2024-04-13T03:51:08.225Z,101914.06
2024-04-13T03:53:38.870Z,101910.19
2024-04-13T03:56:06.345Z,101904.84
2024-04-13T03:58:33.435Z,101907.28
2024-04-13T04:01:00.820Z,101906.03
2024-04-13T04:03:27.865Z,101898.13
2024-04-13T04:05:57.990Z,101887.53
2024-04-13T04:08:24.914Z,101881.94
2024-04-13T04:10:51.723Z,101875.19
2024-04-13T04:13:18.594Z,101886.13
2024-04-13T04:15:45.504Z,101865.38
2024-04-13T04:18:13.068Z,101868.22
2024-04-13T04:20:40.964Z,101869.47
2024-04-13T04:23:07.850Z,101868.84
2024-04-13T04:25:34.687Z,101872.00
2024-04-13T04:28:01.815Z,101869.59
2024-04-13T04:30:28.674Z,101872.34
2024-04-13T04:32:55.705Z,101867.41
2024-04-13T04:35:22.590Z,101858.69
2024-04-13T04:37:49.526Z,101860.44
2024-04-13T04:40:16.534Z,101859.59
2024-04-13T04:42:43.387Z,101858.88
2024-04-13T04:45:10.339Z,101864.22
2024-04-13T04:47:37.436Z,101861.66
2024-04-13T04:50:05.621Z,101850.22
2024-04-13T04:52:32.640Z,101868.00
2024-04-13T04:55:03.258Z,101850.56
2024-04-13T04:57:30.591Z,101856.25
2024-04-13T04:59:57.678Z,101863.13
2024-04-13T05:02:26.080Z,101861.44
2024-04-13T05:04:53.593Z,101852.53
2024-04-13T05:07:21.234Z,101848.22
2024-04-13T05:09:48.422Z,101848.94
2024-04-13T05:12:15.714Z,101849.91
2024-04-13T05:14:42.605Z,101857.03
2024-04-13T05:17:09.606Z,101850.22
2024-04-13T05:19:40.002Z,101843.25
2024-04-13T05:22:07.210Z,101840.00
2024-04-13T05:24:34.772Z,101842.13
2024-04-13T05:27:08.550Z,101853.91
2024-04-13T05:29:37.115Z,101845.69
2024-04-13T05:32:05.824Z,101840.59
2024-04-13T05:34:33.345Z,101844.13
2024-04-13T05:37:00.194Z,101838.88
2024-04-13T05:39:30.425Z,101847.25
2024-04-13T05:41:57.543Z,101849.47
2024-04-13T05:44:24.520Z,101847.50
2024-04-13T05:46:52.374Z,101844.63
2024-04-13T05:49:19.464Z,101847.03
2024-04-13T05:51:47.488Z,101841.25
2024-04-13T05:54:14.543Z,101839.00
2024-04-13T05:56:41.964Z,101832.81
2024-04-13T05:59:09.274Z,101824.16
2024-04-13T06:01:36.228Z,101835.50
2024-04-13T06:04:03.359Z,101824.84
2024-04-13T06:06:30.400Z,101828.88
2024-04-13T06:08:57.767Z,101830.03
2024-04-13T06:11:24.691Z,101825.47
2024-04-13T06:13:51.647Z,101813.88
2024-04-13T06:16:18.541Z,101800.03
2024-04-13T06:18:45.585Z,101791.91
2024-04-13T06:21:12.581Z,101788.03
2024-04-13T06:23:39.771Z,101796.69
2024-04-13T06:26:06.862Z,101795.72
2024-04-13T06:28:34.158Z,101785.81
2024-04-13T06:31:01.192Z,101785.41
2024-04-13T06:33:28.341Z,101783.16
2024-04-13T06:35:56.426Z,101791.69
2024-04-13T06:38:27.915Z,101786.19
2024-04-13T06:40:55.579Z,101797.75
2024-04-13T06:43:23.541Z,101793.88
2024-04-13T06:45:51.966Z,101779.22
2024-04-13T06:48:19.134Z,101775.44
2024-04-13T06:50:46.260Z,101781.59
2024-04-13T06:53:13.183Z,101776.19
2024-04-13T06:55:40.017Z,101780.00
2024-04-13T06:58:07.441Z,101781.44
2024-04-13T07:00:34.603Z,101791.81
2024-04-13T07:03:01.656Z,101775.00
2024-04-13T07:05:28.699Z,101777.34
2024-04-13T07:07:55.690Z,101774.28
2024-04-13T07:10:22.847Z,101769.63
2024-04-13T07:12:50.396Z,101762.84
2024-04-13T07:15:17.530Z,101762.84
2024-04-13T07:17:45.568Z,101769.81
2024-04-13T07:20:13.487Z,101770.31
2024-04-13T07:22:40.321Z,101766.81
2024-04-13T07:25:07.228Z,101773.91
2024-04-13T07:27:34.145Z,101777.72
2024-04-13T07:30:01.711Z,101774.84
2024-04-13T07:32:28.554Z,101776.38
2024-04-13T07:34:55.468Z,101775.53
2024-04-13T07:37:23.496Z,101775.69
2024-04-13T07:39:50.448Z,101773.25
2024-04-13T07:42:17.380Z,101780.69
2024-04-13T07:44:44.364Z,101787.44
2024-04-13T07:47:11.229Z,101798.69
2024-04-13T07:49:38.294Z,101803.41
2024-04-13T07:52:06.395Z,101802.53
2024-04-13T07:54:33.944Z,101799.50
2024-04-13T07:57:01.341Z,101794.78
2024-04-13T07:59:28.239Z,101800.06
2024-04-13T08:01:55.123Z,101787.22
2024-04-13T08:04:22.006Z,101787.84
2024-04-13T08:06:49.075Z,101783.66
2024-04-13T08:09:15.928Z,101781.19
2024-04-13T08:11:42.835Z,101777.50
2024-04-13T08:14:12.167Z,101768.47
2024-04-13T08:16:40.655Z,101774.78
2024-04-13T08:19:07.495Z,101766.09
2024-04-13T08:21:35.898Z,101779.66
2024-04-13T08:24:03.020Z,101761.66
2024-04-13T08:26:29.945Z,101761.09
2024-04-13T08:28:56.839Z,101768.50
2024-04-13T08:31:23.889Z,101772.09
2024-04-13T08:33:51.168Z,101763.47
2024-04-13T08:36:18.107Z,101772.63
2024-04-13T08:38:46.096Z,101773.66
2024-04-13T08:41:36.212Z,101786.63
2024-04-13T08:44:03.400Z,101769.25
2024-04-13T08:46:32.609Z,101787.16
2024-04-13T08:49:01.876Z,101778.59
2024-04-13T08:51:31.912Z,101785.63
2024-04-13T08:53:59.118Z,101777.63
2024-04-13T08:56:26.719Z,101782.47
2024-04-13T08:58:56.690Z,101777.06
2024-04-13T09:01:27.973Z,101777.78
2024-04-13T09:03:55.711Z,101766.44
2024-04-13T09:06:22.954Z,101773.00
2024-04-13T09:08:50.966Z,101768.88
2024-04-13T09:11:23.772Z,101772.25
2024-04-13T09:13:51.343Z,101772.75
2024-04-13T09:16:18.669Z,101763.69
2024-04-13T09:18:46.612Z,101757.41
2024-04-13T09:21:14.074Z,101767.34
2024-04-13T09:23:42.779Z,101776.00
2024-04-13T09:26:09.625Z,101781.09
2024-04-13T09:28:54.795Z,101786.97
2024-04-13T09:31:21.706Z,101791.44
2024-04-13T09:33:53.058Z,101797.84
2024-04-13T09:36:27.431Z,101794.69
2024-04-13T09:38:57.417Z,101785.56
2024-04-13T09:41:25.613Z,101798.03
2024-04-13T09:43:53.269Z,101832.44
2024-04-13T09:46:21.132Z,101849.31
2024-04-13T09:48:48.545Z,101841.66
2024-04-13T09:51:15.767Z,101841.97
2024-04-13T09:53:43.792Z,101856.53
2024-04-13T09:56:11.543Z,101830.94
2024-04-13T09:58:38.721Z,101847.59
2024-04-13T10:01:06.642Z,101844.19
2024-04-13T10:03:33.942Z,101846.91
2024-04-13T10:06:01.904Z,101856.78
2024-04-13T10:08:32.941Z,101868.38
2024-04-13T10:11:04.161Z,101853.03
2024-04-13T10:13:36.158Z,101862.66
2024-04-13T10:16:04.796Z,101862.91
2024-04-13T10:18:31.976Z,101882.66
2024-04-13T10:21:07.078Z,101874.22
2024-04-13T10:23:46.817Z,101884.00
2024-04-13T10:26:14.331Z,101897.75
2024-04-13T10:28:42.446Z,101907.09
2024-04-13T10:31:19.829Z,101892.66
2024-04-13T10:33:57.530Z,101904.31
2024-04-13T10:36:31.737Z,101885.84
2024-04-13T10:39:00.903Z,101904.31
2024-04-13T10:41:35.882Z,101909.19
2024-04-13T10:44:05.120Z,101913.53
2024-04-13T10:46:34.030Z,101913.63
2024-04-13T10:49:03.176Z,101911.78
2024-04-13T10:51:30.198Z,101927.06
2024-04-13T10:53:57.108Z,101935.91
2024-04-13T10:56:24.039Z,101947.34
2024-04-13T10:58:51.486Z,101936.69
2024-04-13T11:01:19.865Z,101948.94
2024-04-13T11:03:47.373Z,101960.25
2024-04-13T11:06:14.530Z,101955.31
2024-04-13T11:08:41.595Z,101963.41
2024-04-13T11:11:12.078Z,101968.34
2024-04-13T11:13:39.074Z,101959.25
2024-04-13T11:16:07.466Z,101955.09
2024-04-13T11:18:34.968Z,101967.75
2024-04-13T11:21:07.144Z,101971.00
2024-04-13T11:23:36.186Z,101977.13
2024-04-13T11:26:04.221Z,101980.78
2024-04-13T11:28:31.582Z,101975.16
2024-04-13T11:30:58.695Z,101973.22
2024-04-13T11:33:26.813Z,101969.09
2024-04-13T11:36:01.974Z,101960.69
2024-04-13T11:38:33.706Z,101950.34
2024-04-13T11:41:00.609Z,101964.69
2024-04-13T11:43:27.702Z,101992.41
2024-04-13T11:45:55.620Z,101990.72
2024-04-13T11:48:22.760Z,101997.94
2024-04-13T11:50:49.868Z,102005.34
2024-04-13T11:53:16.814Z,101996.13
2024-04-13T11:55:43.586Z,101985.25
2024-04-13T11:58:20.878Z,101984.94
2024-04-13T12:00:48.018Z,102000.28
2024-04-13T12:03:15.098Z,102004.91
2024-04-13T12:05:42.057Z,101994.81
2024-04-13T12:08:08.913Z,102013.44
2024-04-13T12:10:35.856Z,102018.38
2024-04-13T12:13:03.048Z,102011.91
2024-04-13T12:15:29.938Z,102012.78
2024-04-13T12:17:57.280Z,102021.00
2024-04-13T12:20:24.516Z,102038.03
2024-04-13T12:22:51.510Z,102033.66
2024-04-13T12:25:18.502Z,102035.66
2024-04-13T12:27:45.557Z,102044.06
2024-04-13T12:30:12.505Z,102041.28
2024-04-13T12:32:40.461Z,102035.06
2024-04-13T12:35:09.378Z,102033.31
2024-04-13T12:37:36.630Z,102031.13
2024-04-13T12:40:04.049Z,102036.59
2024-04-13T12:42:31.340Z,102040.84
2024-04-13T12:44:58.308Z,102047.06
2024-04-13T12:47:25.178Z,102052.81
2024-04-13T12:49:52.049Z,102037.44
2024-04-13T12:52:18.945Z,102042.19
2024-04-13T12:54:45.866Z,102050.16
2024-04-13T12:57:12.947Z,102055.50
2024-04-13T12:59:40.087Z,102049.03
2024-04-13T13:02:07.407Z,102067.81
2024-04-13T13:04:34.410Z,102061.50
2024-04-13T13:07:01.289Z,102058.81
2024-04-13T13:09:28.159Z,102061.47
2024-04-13T13:11:55.117Z,102062.00
2024-04-13T13:14:22.044Z,102067.88
2024-04-13T13:16:48.934Z,102075.22
2024-04-13T13:19:16.261Z,102081.00
2024-04-13T13:21:43.167Z,102070.31
2024-04-13T13:24:10.455Z,102076.38
2024-04-13T13:26:38.224Z,102085.25
2024-04-13T13:29:05.166Z,102090.81
2024-04-13T13:31:32.158Z,102094.78
2024-04-13T13:33:59.684Z,102105.31
2024-04-13T13:36:26.620Z,102087.84
2024-04-13T13:38:53.554Z,102088.38
2024-04-13T13:41:20.598Z,102095.78
2024-04-13T13:43:47.542Z,102099.56
2024-04-13T13:46:14.390Z,102088.88
2024-04-13T13:48:41.313Z,102102.06
2024-04-13T13:51:08.287Z,102105.41
2024-04-13T13:53:35.122Z,102111.41
2024-04-13T13:56:02.114Z,102119.31
2024-04-13T13:58:28.943Z,102113.09
2024-04-13T14:00:55.904Z,102118.25
2024-04-13T14:03:23.207Z,102111.47
2024-04-13T14:05:50.164Z,102111.59
2024-04-13T14:08:17.019Z,102126.50
2024-04-13T14:10:43.921Z,102123.00
2024-04-13T14:13:10.748Z,102118.13
2024-04-13T14:15:38.749Z,102113.09
2024-04-13T14:18:06.784Z,102114.78
2024-04-13T14:20:33.739Z,102125.09
2024-04-13T14:23:00.631Z,102129.38
2024-04-13T14:25:27.553Z,102130.31
2024-04-13T14:27:54.542Z,102124.03
2024-04-13T14:30:22.467Z,102121.63
2024-04-13T14:32:49.569Z,102124.53
2024-04-13T14:35:17.278Z,102131.03
2024-04-13T14:37:44.128Z,102134.53
2024-04-13T14:40:11.985Z,102130.06
2024-04-13T14:42:38.953Z,102124.09
2024-04-13T14:45:07.002Z,102126.81
2024-04-13T14:47:37.099Z,102130.91
2024-04-13T14:50:09.055Z,102142.56
2024-04-13T14:52:39.059Z,102146.25
2024-04-13T14:55:08.926Z,102140.78
2024-04-13T14:57:35.941Z,102148.13
2024-04-13T15:00:03.632Z,102140.97
2024-04-13T15:02:31.773Z,102131.19
2024-04-13T15:04:58.634Z,102138.69
2024-04-13T15:07:25.627Z,102141.78
2024-04-13T15:09:52.570Z,102147.75
2024-04-13T15:12:19.442Z,102144.97
2024-04-13T15:14:46.317Z,102143.00
2024-04-13T15:17:13.218Z,102147.84
2024-04-13T15:19:40.181Z,102142.38
2024-04-13T15:22:09.917Z,102155.94
2024-04-13T15:24:37.702Z,102153.00
2024-04-13T15:27:04.886Z,102149.28
2024-04-13T15:29:31.775Z,102148.78
2024-04-13T15:31:58.624Z,102160.88
2024-04-13T15:34:25.512Z,102152.19
2024-04-13T15:36:52.530Z,102155.81
2024-04-13T15:39:19.487Z,102163.84
2024-04-13T15:41:46.297Z,102162.59
2024-04-13T15:44:13.240Z,102167.28
2024-04-13T15:46:40.082Z,102168.78
2024-04-13T15:49:06.962Z,102165.03
2024-04-13T15:51:33.884Z,102167.56
2024-04-13T15:54:08.408Z,102164.50
2024-04-13T15:56:38.745Z,102161.66
2024-04-13T15:59:06.331Z,102169.69
2024-04-13T16:01:33.243Z,102184.06
2024-04-13T16:04:00.343Z,102170.97
2024-04-13T16:06:27.338Z,102181.94
2024-04-13T16:08:54.254Z,102181.66
2024-04-13T16:11:21.212Z,102171.69
2024-04-13T16:13:49.301Z,102173.75
2024-04-13T16:16:21.634Z,102179.03
2024-04-13T16:18:53.936Z,102177.75
2024-04-13T16:21:20.923Z,102182.59
2024-04-13T16:23:47.842Z,102190.47
2024-04-13T16:26:14.704Z,102212.22
2024-04-13T16:28:41.492Z,102213.25
2024-04-13T16:31:08.371Z,102212.59
2024-04-13T16:33:35.352Z,102200.22
2024-04-13T16:36:02.281Z,102209.19
2024-04-13T16:38:29.110Z,102205.81
2024-04-13T16:40:55.955Z,102206.47
2024-04-13T16:43:22.841Z,102215.78
2024-04-13T16:45:49.840Z,102205.69
2024-04-13T16:48:16.888Z,102214.09
2024-04-13T16:50:53.976Z,102209.84
2024-04-13T16:53:20.922Z,102211.84
2024-04-13T16:55:47.747Z,102212.44
2024-04-13T16:58:14.662Z,102207.75
2024-04-13T17:00:41.705Z,102210.34
2024-04-13T17:03:08.579Z,102218.16
2024-04-13T17:05:35.592Z,102217.97
2024-04-13T17:08:02.587Z,102218.03
2024-04-13T17:10:29.797Z,102220.66
2024-04-13T17:12:56.726Z,102226.66
2024-04-13T17:15:23.804Z,102230.97
2024-04-13T17:17:50.875Z,102228.31
2024-04-13T17:20:17.669Z,102228.09
2024-04-13T17:22:44.516Z,102221.75
2024-04-13T17:25:11.365Z,102228.47
2024-04-13T17:27:38.330Z,102218.53
2024-04-13T17:30:07.450Z,102212.75
2024-04-13T17:32:34.541Z,102218.53
2024-04-13T17:35:01.967Z,102222.34
2024-04-13T17:37:28.837Z,102227.97
2024-04-13T17:39:55.700Z,102215.88
2024-04-13T17:42:22.599Z,102218.81
2024-04-13T17:44:49.466Z,102217.72
2024-04-13T17:47:16.413Z,102213.19
2024-04-13T17:49:43.294Z,102216.88
2024-04-13T17:52:10.554Z,102230.25
2024-04-13T17:54:37.545Z,102229.06
2024-04-13T17:57:04.628Z,102237.19
2024-04-13T17:59:31.565Z,102236.63
2024-04-13T18:01:58.384Z,102241.03
2024-04-13T18:04:25.287Z,102240.47
2024-04-13T18:06:52.289Z,102242.97
2024-04-13T18:09:19.166Z,102231.09
2024-04-13T18:11:48.067Z,102229.41
2024-04-13T18:14:15.181Z,102230.13
2024-04-13T18:16:42.055Z,102224.69
2024-04-13T18:19:08.948Z,102236.63
2024-04-13T18:21:35.990Z,102238.22
2024-04-13T18:24:02.905Z,102241.06
2024-04-13T18:26:30.133Z,102248.16
2024-04-13T18:28:56.992Z,102240.97
2024-04-13T18:31:23.922Z,102242.56
2024-04-13T18:33:50.953Z,102262.03
2024-04-13T18:36:17.854Z,102254.66
2024-04-13T18:38:48.972Z,102261.09
2024-04-13T18:41:20.049Z,102279.94
2024-04-13T18:43:47.118Z,102280.28
2024-04-13T18:46:16.120Z,102290.19
2024-04-13T18:48:43.554Z,102295.69
2024-04-13T18:51:10.719Z,102296.84
2024-04-13T18:53:37.948Z,102298.09
2024-04-13T18:56:05.395Z,102296.56
2024-04-13T18:58:33.119Z,102299.53
2024-04-13T19:01:06.873Z,102296.16
2024-04-13T19:03:34.082Z,102295.72
2024-04-13T19:06:01.237Z,102308.09
2024-04-13T19:08:28.176Z,102308.28
2024-04-13T19:10:55.377Z,102306.66
2024-04-13T19:13:22.273Z,102307.75
2024-04-13T19:15:56.786Z,102308.81
2024-04-13T19:18:34.670Z,102315.50
2024-04-13T19:21:04.277Z,102313.13
2024-04-13T19:23:31.399Z,102317.19
2024-04-13T19:25:59.327Z,102327.03
2024-04-13T19:28:27.597Z,102322.81
2024-04-13T19:30:55.293Z,102320.44
2024-04-13T19:33:23.146Z,102333.78
2024-04-13T19:35:50.314Z,102326.03
2024-04-13T19:38:17.918Z,102330.63
2024-04-13T19:40:46.672Z,102340.34
2024-04-13T19:43:13.583Z,102342.34
2024-04-13T19:45:40.501Z,102340.69
2024-04-13T19:48:07.841Z,102344.22
2024-04-13T19:50:36.094Z,102346.09
2024-04-13T19:53:06.346Z,102352.31
2024-04-13T19:55:34.122Z,102360.09
2024-04-13T19:58:01.027Z,102361.75
2024-04-13T20:00:27.965Z,102366.81
2024-04-13T20:02:54.874Z,102367.47
2024-04-13T20:05:21.833Z,102364.53
2024-04-13T20:07:48.743Z,102360.78
2024-04-13T20:10:19.342Z,102364.31
2024-04-13T20:12:48.045Z,102360.03
2024-04-13T20:15:33.604Z,102369.75
2024-04-13T20:18:19.552Z,102364.75
2024-04-13T20:20:48.939Z,102362.25
2024-04-13T20:23:15.777Z,102370.25
2024-04-13T20:25:42.633Z,102363.34
2024-04-13T20:28:09.526Z,102366.16
2024-04-13T20:30:36.390Z,102365.53
2024-04-13T20:33:03.518Z,102358.78
2024-04-13T20:35:30.399Z,102351.47
2024-04-13T20:37:57.691Z,102362.00
2024-04-13T20:40:24.871Z,102372.75
2024-04-13T20:42:51.835Z,102372.97
2024-04-13T20:45:18.869Z,102381.09
2024-04-13T20:47:45.832Z,102376.09
2024-04-13T20:50:12.833Z,102372.78
2024-04-13T20:52:52.466Z,102386.84
2024-04-13T20:55:24.184Z,102386.97
2024-04-13T20:57:51.483Z,102385.28
2024-04-13T21:00:18.703Z,102389.72
2024-04-13T21:02:45.734Z,102387.31
2024-04-13T21:05:12.726Z,102396.06
2024-04-13T21:07:39.518Z,102393.56
2024-04-13T21:10:06.735Z,102397.06
2024-04-13T21:12:33.616Z,102397.13
2024-04-13T21:15:00.642Z,102397.13
2024-04-13T21:17:27.688Z,102403.25
2024-04-13T21:19:54.556Z,102404.13
2024-04-13T21:22:23.382Z,102406.84
2024-04-13T21:24:50.466Z,102396.50
2024-04-13T21:27:17.290Z,102400.88
2024-04-13T21:29:44.166Z,102400.94
2024-04-13T21:32:11.017Z,102397.56
2024-04-13T21:34:37.920Z,102409.78
2024-04-13T21:37:05.957Z,102409.84
2024-04-13T21:39:33.021Z,102414.34
2024-04-13T21:41:59.932Z,102421.38
2024-04-13T21:44:26.766Z,102422.25
2024-04-13T21:46:54.183Z,102419.75
2024-04-13T21:49:21.012Z,102421.50
2024-04-13T21:51:48.458Z,102418.00
2024-04-13T21:54:15.365Z,102421.50
2024-04-13T21:56:42.204Z,102424.97
2024-04-13T21:59:09.234Z,102427.56
2024-04-13T22:01:36.439Z,102431.88
2024-04-13T22:04:05.358Z,102437.09
2024-04-13T22:06:32.549Z,102434.50
2024-04-13T22:09:01.435Z,102439.78
2024-04-13T22:11:28.460Z,102425.94
2024-04-13T22:13:56.119Z,102428.59
2024-04-13T22:16:23.040Z,102415.59
2024-04-13T22:18:49.975Z,102426.06
2024-04-13T22:21:16.955Z,102430.44
2024-04-13T22:23:43.816Z,102432.19
2024-04-13T22:26:10.722Z,102434.78
2024-04-13T22:28:37.546Z,102436.44
2024-04-13T22:31:04.854Z,102436.47
2024-04-13T22:33:31.838Z,102434.72
2024-04-13T22:35:58.728Z,102431.28
2024-04-13T22:38:25.689Z,102438.28
2024-04-13T22:40:52.501Z,102441.78
2024-04-13T22:43:19.414Z,102445.28
2024-04-13T22:45:46.361Z,102446.03
2024-04-13T22:48:13.348Z,102437.25
2024-04-13T22:50:40.202Z,102443.28
2024-04-13T22:53:07.206Z,102444.00
2024-04-13T22:55:34.099Z,102440.44
2024-04-13T22:58:01.029Z,102441.09
2024-04-13T23:00:27.970Z,102430.59
2024-04-13T23:02:54.824Z,102447.75
2024-04-13T23:05:21.672Z,102440.63
2024-04-13T23:07:48.593Z,102449.13
2024-04-13T23:10:15.608Z,102444.69
2024-04-13T23:12:42.419Z,102436.09
2024-04-13T23:15:09.404Z,102448.19
2024-04-13T23:17:36.551Z,102437.84
2024-04-13T23:20:03.770Z,102438.94
2024-04-13T23:22:30.685Z,102437.44
2024-04-13T23:24:57.510Z,102437.63
2024-04-13T23:27:24.434Z,102447.38
2024-04-13T23:29:51.314Z,102445.81
2024-04-13T23:32:18.463Z,102442.47
2024-04-13T23:34:45.368Z,102444.38
2024-04-13T23:37:12.256Z,102445.28
2024-04-13T23:39:39.184Z,102443.63
2024-04-13T23:42:06.298Z,102435.84
2024-04-13T23:44:34.670Z,102437.69
2024-04-13T23:47:01.518Z,102454.22
2024-04-13T23:49:28.359Z,102457.69
2024-04-13T23:51:55.333Z,102453.38
2024-04-13T23:54:22.242Z,102456.84
2024-04-13T23:56:49.196Z,102454.28
2024-04-13T23:59:16.059Z,102447.31
